Crash-aerien 15 AUG 2022 d'un Cessna 560 Citation Encore N977MR - Aspen-Pitkin County Airport, CO (ASE)
ASN logo
 

Statuts:Information is only available from news, social media or unofficial sources
Date:lundi 15 aot 2022
Heure:16:44
Type/Sous-type:Silhouette image of generic C560 model; specific model in this crash may look slightly different
Cessna 560 Citation Encore
Compagnie:Raber Flight Services, LLC
Immatriculation: N977MR
Numéro de série: 560-0623
Année de Fabrication: 2002
Moteurs: 2 Pratt & Whitney Canada PW535A
Equipage:victimes: 0 / à bord:
Passagers:victimes: 0 / à bord:
Total:victimes: 0 / à bord: 5
Dégats de l'appareil: Substantiels
Lieu de l'accident:Aspen-Pitkin County Airport, CO (ASE) (   Etats-Unis d'Amérique)
Phase de vol: A l'atterrissage (LDG)
Nature:Passagers
Aéroport de départ:Denver-Centennial Airport, CO (APA/KAPA), Etats-Unis d'Amérique
Aéroport de destination:Aspen-Pitkin County Airport, CO (ASE/KASE), Etats-Unis d'Amérique
Détails:
The aircraft suffered a runway excursion during landing on runway 15 and sustained damage to the undercarriage and a wing.

Weather reported about the accident time (2244Z):
KASE 152253Z 28006KT 10SM +TSRA BKN055 BKN070 OVC080 16/11 A3029 RMK AO2 LTG DSNT E AND W AND NW RAB27 TSE01B02E17B22 SLP148 P0020 T01610106
KASE 152153Z 34007G17KT 10SM TS CLR 23/08 A3022 RMK AO2 LTG DSNT SW-N TSB46 SLP104 T02330083

Sources:
» twitter.com/FlyAspenAirport
» FAA
» flightaware.com
» flightradar24.com
» www.facebook.com/rfsaviation


Photos

Add your photo of this accident or aircraft

Plan
Ce plan montre l'aéroport de départ ainsi que la supposée destination du vol. La ligne fixe reliant les deux aéroports n'est pas le plan de vol exact.
La distance entre Denver-Centennial Airport, CO et Aspen-Pitkin County Airport, CO est de 177 km (110 miles).
Accident location: Exact; deduced from official accident report.

Les informations ci-dessus ne représentent pas l'opinion de la 'Flight Safety Foundation' ou de 'Aviation Safety Network' sur les causes de l'accident. Ces informations prélimimaires sont basées sur les faits tel qu'ils sont connus à ce jour.
languages: languages

Share

The Aviation Safety Network is an exclusive service provided by:
Quick Links:

CONNECT WITH US: FSF Facebook FSF Twitter FSF Youtube FSF LinkedIn FSF Instagram

©2023 Flight Safety Foundation

1920 Ballenger Av., 4th Fl.
Alexandria, Virginia 22314
www.FlightSafety.org